Time;durP1;ratioP1;P1;durP2;ratioP2;P2;SDS_P1;SDS_P2;PMS_P1;PMS_P2;Temp;Humidity;BMP_temperature;BMP_pressure;BME280_temperature;BME280_humidity;BME280_pressure;Samples;Min_cycle;Max_cycle;Signal;HPM_P1;HPM_P2
2022/04/21 00:02:12;;;;;;;32.13;19.20;;;;;;;8.84;100.00;100345.09;5197170;56;1143187;-69
2022/04/21 00:07:18;;;;;;;31.00;18.53;;;;;;;8.79;100.00;100348.53;5221649;56;1143124;-69
2022/04/21 00:12:25;;;;;;;30.73;18.20;;;;;;;8.74;100.00;100350.66;5221640;56;1143336;-69
2022/04/21 00:17:31;;;;;;;29.00;17.63;;;;;;;8.76;100.00;100354.03;5221667;56;1143161;-68
2022/04/21 00:28:00;;;;;;;29.52;19.20;;;;;;;8.73;100.00;100358.20;5221804;56;1143186;-70
2022/04/21 00:33:06;;;;;;;30.23;19.73;;;;;;;8.77;100.00;100361.83;5221613;56;1141180;-70
2022/04/21 00:38:12;;;;;;;30.83;22.17;;;;;;;8.80;100.00;100358.98;5221651;56;1141095;-70
2022/04/21 00:43:17;;;;;;;28.15;20.57;;;;;;;8.78;100.00;100352.13;5221484;56;1141080;-70
2022/04/21 00:48:23;;;;;;;27.67;18.00;;;;;;;8.77;100.00;100347.33;5184454;56;1141166;-68
2022/04/21 00:53:29;;;;;;;30.30;18.47;;;;;;;8.84;100.00;100358.28;5155947;57;1141143;-70
2022/04/21 00:58:38;;;;;;;34.03;20.20;;;;;;;8.89;100.00;100349.54;5155930;57;1141367;-69
2022/04/21 01:03:44;;;;;;;31.37;21.40;;;;;;;8.96;100.00;100356.53;5155785;57;1141118;-69
2022/04/21 01:08:51;;;;;;;26.53;19.63;;;;;;;8.90;100.00;100356.50;5155793;57;1141147;-68
2022/04/21 01:13:56;;;;;;;34.13;21.17;;;;;;;8.89;100.00;100358.77;5155805;57;1141098;-70
2022/04/21 01:19:02;;;;;;;29.30;19.37;;;;;;;8.93;100.00;100356.75;5155781;57;1141079;-70
2022/04/21 01:24:08;;;;;;;29.87;20.80;;;;;;;9.00;100.00;100354.89;5155884;57;1141071;-71
2022/04/21 01:29:15;;;;;;;29.47;22.20;;;;;;;9.02;100.00;100356.91;5155926;57;1141302;-68
2022/04/21 01:34:21;;;;;;;32.23;21.50;;;;;;;9.06;100.00;100350.46;5155738;57;1141154;-70
2022/04/21 01:44:51;;;;;;;41.80;25.23;;;;;;;9.06;100.00;100352.25;5155751;57;1139034;-70
2022/04/21 01:49:56;;;;;;;51.03;27.93;;;;;;;9.11;100.00;100344.38;5213408;56;1139084;-70
2022/04/21 01:55:05;;;;;;;55.30;28.32;;;;;;;9.17;100.00;100340.42;5239835;56;1143480;-71
2022/04/21 02:00:12;;;;;;;50.00;24.63;;;;;;;9.16;100.00;100335.66;5138433;56;1143065;-69
2022/04/21 02:05:18;;;;;;;32.40;21.40;;;;;;;9.19;100.00;100342.47;5222222;56;1143391;-69
2022/04/21 02:10:24;;;;;;;30.50;19.30;;;;;;;9.08;100.00;100329.24;5222278;56;1143107;-69
2022/04/21 02:15:30;;;;;;;35.87;22.30;;;;;;;8.93;100.00;100332.55;5222058;56;1143270;-70
2022/04/21 02:20:36;;;;;;;38.30;25.20;;;;;;;8.83;100.00;100331.55;5222104;56;1143125;-69
2022/04/21 02:25:42;;;;;;;35.13;24.33;;;;;;;8.76;100.00;100334.25;5221952;56;1143355;-70
2022/04/21 02:30:48;;;;;;;35.00;24.00;;;;;;;8.66;100.00;100335.41;5221983;56;1143386;-70
2022/04/21 02:35:54;;;;;;;32.63;22.20;;;;;;;8.67;100.00;100335.77;5221950;56;1143301;-69
2022/04/21 02:40:59;;;;;;;32.63;22.73;;;;;;;8.87;100.00;100333.45;5221959;56;1143734;-70
2022/04/21 02:46:05;;;;;;;30.03;22.83;;;;;;;8.87;100.00;100333.45;5215093;56;1143165;-70
2022/04/21 02:51:12;;;;;;;36.45;25.25;;;;;;;8.95;100.00;100335.07;5156147;57;1143212;-69
2022/04/21 03:01:41;;;;;;;31.63;23.20;;;;;;;8.95;100.00;100337.23;5156206;57;1143110;-68
2022/04/21 03:06:47;;;;;;;36.30;23.95;;;;;;;8.97;100.00;100330.53;5161634;57;1143177;-69
2022/04/21 03:11:52;;;;;;;30.73;21.53;;;;;;;9.01;100.00;100335.44;5161617;57;1143365;-70
2022/04/21 03:16:59;;;;;;;32.45;23.67;;;;;;;9.08;100.00;100338.48;5161525;57;1143192;-69
2022/04/21 03:27:29;;;;;;;33.27;22.90;;;;;;;9.08;100.00;100345.92;5161694;57;1143226;-71
2022/04/21 03:32:35;;;;;;;33.33;21.12;;;;;;;9.07;100.00;100349.51;5161630;57;1143314;-69
2022/04/21 03:37:40;;;;;;;30.50;21.80;;;;;;;9.09;100.00;100349.40;5161678;57;1143465;-69
2022/04/21 03:42:46;;;;;;;30.90;22.17;;;;;;;9.14;100.00;100359.14;5161646;57;1143381;-68
2022/04/21 03:47:52;;;;;;;36.97;23.30;;;;;;;9.17;100.00;100360.21;5123006;57;1143126;-69
2022/04/21 03:52:58;;;;;;;30.17;21.30;;;;;;;9.13;100.00;100356.14;5161616;57;1143119;-70
2022/04/21 03:58:03;;;;;;;29.30;20.93;;;;;;;9.10;100.00;100357.20;5161640;57;1143341;-69
2022/04/21 04:03:09;;;;;;;29.00;18.73;;;;;;;9.06;100.00;100361.02;5176067;56;1143306;-69
2022/04/21 04:13:38;;;;;;;35.17;20.80;;;;;;;9.02;100.00;100366.14;5108565;57;1143391;-70
2022/04/21 04:18:44;;;;;;;33.13;21.30;;;;;;;8.98;100.00;100366.03;5156843;57;1143082;-70
2022/04/21 04:23:49;;;;;;;34.43;23.70;;;;;;;8.96;100.00;100374.52;5163695;57;1143332;-70
2022/04/21 04:28:55;;;;;;;37.63;23.63;;;;;;;9.00;100.00;100375.15;5101765;57;1141114;-70
2022/04/21 04:34:01;;;;;;;29.67;20.70;;;;;;;9.00;100.00;100377.31;5079590;58;1141343;-71
2022/04/21 04:39:08;;;;;;;36.33;23.53;;;;;;;9.02;100.00;100390.36;5082725;57;1141195;-71
2022/04/21 04:44:13;;;;;;;43.90;27.33;;;;;;;8.99;100.00;100387.50;5079673;58;1141095;-70
2022/04/21 04:49:19;;;;;;;32.57;22.80;;;;;;;9.02;100.00;100383.77;5142635;57;1141135;-70
2022/04/21 04:54:27;;;;;;;30.80;21.40;;;;;;;8.98;100.00;100384.49;5163407;57;1141080;-69
2022/04/21 04:59:33;;;;;;;32.57;22.30;;;;;;;8.93;100.00;100389.73;5163753;57;1141035;-69
2022/04/21 05:04:39;;;;;;;39.80;23.27;;;;;;;8.90;100.00;100393.42;5180159;56;1141069;-70
2022/04/21 05:09:45;;;;;;;35.00;23.17;;;;;;;8.88;100.00;100392.69;5242335;56;1141069;-69
2022/04/21 05:14:52;;;;;;;31.17;23.37;;;;;;;8.90;100.00;100391.26;5242249;56;1141006;-70
2022/04/21 05:19:58;;;;;;;27.37;20.40;;;;;;;8.88;100.00;100394.48;5242273;56;1141373;-70
2022/04/21 05:25:07;;;;;;;29.33;19.87;;;;;;;8.83;100.00;100388.24;5242290;56;1141051;-69
2022/04/21 05:35:38;;;;;;;25.20;17.60;;;;;;;8.92;100.00;100389.36;5230282;56;1138988;-71
2022/04/21 05:40:45;;;;;;;26.80;18.70;;;;;;;8.98;100.00;100395.52;5122176;57;1139232;-69
2022/04/21 05:45:51;;;;;;;32.63;22.17;;;;;;;8.93;100.00;100401.12;5116523;56;1143088;-70
2022/04/21 05:50:57;;;;;;;34.43;21.30;;;;;;;8.91;100.00;100404.81;5222137;56;1143049;-68
2022/04/21 05:56:04;;;;;;;34.50;20.43;;;;;;;8.91;100.00;100405.66;5163820;57;1143109;-68
2022/04/21 06:01:11;;;;;;;36.50;20.50;;;;;;;8.97;100.00;100414.94;5163904;57;1143158;-68
2022/04/21 06:06:17;;;;;;;38.17;22.23;;;;;;;9.01;100.00;100413.77;5131711;57;1143232;-69
2022/04/21 06:11:24;;;;;;;32.03;19.90;;;;;;;9.01;100.00;100413.77;5087680;57;1143219;-69
2022/04/21 06:16:29;;;;;;;39.47;21.60;;;;;;;9.04;100.00;100414.36;5130233;57;1143349;-70
2022/04/21 06:21:35;;;;;;;34.20;19.60;;;;;;;9.10;100.00;100420.52;5091010;57;1143180;-73
2022/04/21 06:26:42;;;;;;;28.30;17.67;;;;;;;9.15;100.00;100429.42;5079554;57;1143179;-76
2022/04/21 06:31:48;;;;;;;29.60;17.80;;;;;;;9.15;100.00;100430.27;5079613;57;1143397;-73
2022/04/21 06:36:54;;;;;;;31.90;18.67;;;;;;;9.11;100.00;100434.08;5079554;57;1143114;-75
2022/04/21 06:41:59;;;;;;;24.63;14.23;;;;;;;9.09;100.00;100434.66;5079501;57;1143357;-76
2022/04/21 06:52:29;;;;;;;30.63;16.80;;;;;;;9.09;100.00;100433.82;5159543;57;1143102;-74
2022/04/21 06:57:35;;;;;;;29.73;17.23;;;;;;;9.25;100.00;100446.27;5159328;57;1143174;-75
2022/04/21 07:02:42;;;;;;;28.87;16.40;;;;;;;9.25;100.00;100446.27;5163777;57;1143518;-74
2022/04/21 07:07:48;;;;;;;25.93;17.53;;;;;;;9.33;100.00;100456.24;5204888;56;1143171;-77
2022/04/21 07:12:54;;;;;;;34.13;18.43;;;;;;;9.36;100.00;100462.14;5248268;56;1143174;-73
2022/04/21 07:18:00;;;;;;;30.70;16.27;;;;;;;9.47;100.00;100466.15;5248264;56;1143196;-77
2022/04/21 07:23:06;;;;;;;27.23;15.70;;;;;;;9.60;100.00;100471.87;5248289;56;1143158;-74
2022/04/21 07:28:11;;;;;;;29.37;16.17;;;;;;;9.66;100.00;100472.23;5248373;56;1143170;-74
2022/04/21 07:33:19;;;;;;;24.03;14.43;;;;;;;9.69;100.00;100473.33;5248292;56;1143407;-77
2022/04/21 07:38:24;;;;;;;23.90;13.20;;;;;;;9.81;100.00;100470.24;5248120;56;1143442;-76
2022/04/21 07:43:34;;;;;;;20.67;12.70;;;;;;;9.82;100.00;100471.45;5248297;56;1143148;-75
2022/04/21 07:54:04;;;;;;;20.10;12.17;;;;;;;9.84;100.00;100480.58;5248360;56;1143397;-76
2022/04/21 07:59:10;;;;;;;14.68;9.70;;;;;;;9.83;100.00;100486.34;5248009;56;1143165;-77
2022/04/21 08:04:15;;;;;;;15.77;11.43;;;;;;;9.85;100.00;100490.20;5201323;56;1141099;-72
2022/04/21 08:09:21;;;;;;;14.40;11.27;;;;;;;9.82;100.00;100489.94;5199621;56;1143195;-77
2022/04/21 08:14:28;;;;;;;16.60;12.23;;;;;;;9.85;100.00;100490.20;5156616;56;1143211;-73
2022/04/21 08:19:34;;;;;;;17.60;11.83;;;;;;;9.88;100.00;100493.94;5155793;57;1143232;-75
2022/04/21 08:35:28;;;;;;;15.93;9.27;;;;;;;10.09;100.00;100495.41;5155670;57;1141068;-73
2022/04/21 08:40:36;;;;;;;14.57;11.17;;;;;;;10.18;100.00;100497.38;5155809;57;1141098;-74
2022/04/21 08:45:45;;;;;;;13.07;10.80;;;;;;;10.23;100.00;100493.44;5158043;56;1143215;-76
2022/04/21 08:50:52;;;;;;;14.23;10.63;;;;;;;10.35;100.00;100486.87;5242239;56;1143217;-74
2022/04/21 08:55:57;;;;;;;15.50;11.70;;;;;;;10.49;100.00;100475.59;5241257;56;1143186;-74
2022/04/21 09:01:03;;;;;;;10.73;8.93;;;;;;;10.54;100.00;100469.95;5241928;56;1143154;-75
2022/04/21 09:06:11;;;;;;;15.73;10.40;;;;;;;10.54;100.00;100468.63;5242172;56;1141075;-77
2022/04/21 09:11:18;;;;;;;13.67;10.17;;;;;;;10.55;100.00;100461.86;5202759;56;1143197;-77
2022/04/21 09:16:28;;;;;;;13.63;8.53;;;;;;;10.67;100.00;100443.38;5155740;57;1140351;-73
2022/04/21 09:21:38;;;;;;;11.47;8.30;;;;;;;10.78;100.00;100442.03;5155269;57;1143034;-74
2022/04/21 09:26:47;;;;;;;11.25;7.87;;;;;;;10.81;100.00;100441.31;5155888;57;1143148;-76
2022/04/21 09:32:02;;;;;;;13.83;9.30;;;;;;;10.94;100.00;100439.84;5155756;57;1143115;-77
2022/04/21 09:37:08;;;;;;;11.37;8.30;;;;;;;11.11;100.00;100431.39;5155652;57;1143183;-77
2022/04/21 09:42:14;;;;;;;14.03;8.37;;;;;;;11.27;100.00;100431.81;5155715;57;1143155;-74
2022/04/21 09:47:22;;;;;;;10.27;8.27;;;;;;;11.46;100.00;100435.58;5188547;56;1143254;-74
2022/04/21 09:52:31;;;;;;;12.27;9.00;;;;;;;11.62;100.00;100452.73;5241294;56;1143129;-76
2022/04/21 09:57:38;;;;;;;7.47;6.63;;;;;;;11.84;100.00;100444.36;5242116;56;1143163;-74
2022/04/21 10:02:47;;;;;;;8.30;6.53;;;;;;;12.03;100.00;100443.66;5242039;56;1141013;-76
2022/04/21 10:07:54;;;;;;;11.93;7.77;;;;;;;12.32;100.00;100449.95;5242045;56;1141077;-78
2022/04/21 10:13:01;;;;;;;13.07;7.40;;;;;;;12.53;100.00;100465.33;5196329;56;1143150;-76
2022/04/21 10:18:08;;;;;;;8.47;7.20;;;;;;;12.63;100.00;100465.39;5155343;57;1143194;-75
2022/04/21 10:23:19;;;;;;;11.23;7.53;;;;;;;12.71;100.00;100468.20;5155956;57;1141102;-79
2022/04/21 10:28:39;;;;;;;8.97;6.70;;;;;;;12.77;100.00;100470.81;5156118;57;1143371;-73
2022/04/21 10:33:56;;;;;;;8.33;5.12;;;;;;;12.78;100.00;100463.20;5156151;57;1141294;-76
2022/04/21 10:39:12;;;;;;;10.87;7.30;;;;;;;12.98;100.00;100462.30;5155789;57;1141217;-74
2022/04/21 10:44:28;;;;;;;15.00;7.33;;;;;;;13.06;100.00;100456.30;5156093;57;1143213;-73
2022/04/21 10:49:57;;;;;;;11.13;7.47;;;;;;;12.97;100.00;100458.81;5225080;56;1143139;-76
2022/04/21 11:00:34;;;;;;;11.30;7.20;;;;;;;13.09;100.00;100462.67;5242514;56;1141401;-75
2022/04/21 11:05:41;;;;;;;11.53;6.63;;;;;;;13.11;100.00;100450.10;5242547;56;1141120;-74
2022/04/21 11:10:47;;;;;;;7.33;5.97;;;;;;;13.20;100.00;100455.94;5242537;56;1141143;-74
2022/04/21 11:15:58;;;;;;;9.67;6.43;;;;;;;13.36;100.00;100455.75;5239312;56;1139176;-78
2022/04/21 11:21:28;;;;;;;16.50;7.60;;;;;;;13.47;100.00;100453.93;5221960;56;1139098;-77
2022/04/21 11:26:35;;;;;;;11.60;5.93;;;;;;;13.62;100.00;100445.41;5221826;56;1141078;-78
2022/04/21 11:31:40;;;;;;;7.12;5.62;;;;;;;13.82;100.00;100442.25;5221689;56;1141064;-78
2022/04/21 11:36:47;;;;;;;9.07;6.67;;;;;;;13.92;100.00;100439.57;5221816;56;1138995;-75
2022/04/21 11:41:53;;;;;;;8.57;6.50;;;;;;;13.95;100.00;100439.30;5221850;56;1136905;-74
2022/04/21 11:47:00;;;;;;;9.73;5.97;;;;;;;13.91;100.00;100437.89;5227352;56;1136945;-76
2022/04/21 11:52:06;;;;;;;7.53;5.77;;;;;;;13.96;100.00;100430.34;5242602;56;1141386;-74
2022/04/21 11:57:12;;;;;;;9.70;5.10;;;;;;;13.94;100.00;100433.63;5242899;56;1140993;-75
2022/04/21 12:07:42;;;;;;;8.50;5.20;;;;;;;13.85;100.00;100440.65;5242421;56;1143199;-79
2022/04/21 12:12:48;;;;;;;11.90;4.73;;;;;;;13.84;100.00;100450.09;5183625;56;1141137;-76
2022/04/21 12:18:02;;;;;;;9.67;3.80;;;;;;;13.82;100.00;100442.25;5159104;57;1143130;-77
2022/04/21 12:23:09;;;;;;;4.63;4.10;;;;;;;13.85;100.00;100441.98;5159195;57;1141118;-74
2022/04/21 12:28:14;;;;;;;6.87;4.90;;;;;;;13.87;100.00;100433.86;5159274;57;1141116;-75
2022/04/21 12:33:20;;;;;;;5.10;4.63;;;;;;;13.89;100.00;100434.56;5159197;57;1141311;-77
2022/04/21 12:43:51;;;;;;;5.92;3.20;;;;;;;13.80;99.25;100429.59;5159340;57;1139061;-77
2022/04/21 12:48:57;;;;;;;4.87;3.63;;;;;;;13.71;97.45;100427.30;5159099;57;1139185;-76
2022/04/21 12:54:03;;;;;;;5.40;3.70;;;;;;;13.63;98.73;100424.50;5101851;57;1139011;-76
2022/04/21 12:59:08;;;;;;;5.63;4.23;;;;;;;13.60;98.42;100419.95;5075336;57;1139268;-74
2022/04/21 13:04:14;;;;;;;11.93;4.90;;;;;;;13.69;98.77;100423.11;5075317;57;1138968;-74
2022/04/21 13:09:20;;;;;;;7.17;4.23;;;;;;;13.76;99.62;100429.52;5075368;57;1141263;-75
2022/04/21 13:14:26;;;;;;;8.73;4.60;;;;;;;13.85;99.59;100426.52;5186292;56;1139038;-75
2022/04/21 13:19:32;;;;;;;4.67;4.00;;;;;;;13.91;99.74;100428.59;5217014;56;1138977;-76
2022/04/21 13:24:38;;;;;;;13.40;10.57;;;;;;;13.92;97.49;100426.28;5216999;56;1138993;-78
2022/04/21 13:29:45;;;;;;;6.80;4.40;;;;;;;13.82;97.00;100426.30;5216945;56;1143205;-76
2022/04/21 13:34:51;;;;;;;7.40;4.10;;;;;;;13.82;97.66;100423.64;5217015;56;1139258;-76
2022/04/21 13:39:56;;;;;;;5.10;3.57;;;;;;;13.79;96.37;100421.27;5216778;56;1139233;-73
2022/04/21 13:45:02;;;;;;;5.23;4.30;;;;;;;13.76;96.74;100416.23;5216827;56;1139046;-76
2022/04/21 13:50:10;;;;;;;6.60;4.30;;;;;;;13.77;97.12;100418.39;5070795;58;1138964;-76
2022/04/21 13:55:16;;;;;;;3.83;3.43;;;;;;;13.79;97.59;100412.45;5003396;58;1139018;-75
2022/04/21 14:00:25;;;;;;;11.13;4.67;;;;;;;13.77;96.77;100411.75;5161891;57;1139019;-77
2022/04/21 14:05:30;;;;;;;12.73;4.30;;;;;;;13.70;96.58;100411.50;5161881;57;1141284;-76
2022/04/21 14:10:37;;;;;;;6.50;3.77;;;;;;;13.73;97.45;100413.87;5162155;56;1140483;-73
2022/04/21 14:15:42;;;;;;;13.13;4.63;;;;;;;13.71;97.11;100418.00;5156991;57;1139060;-76
2022/04/21 14:20:52;;;;;;;10.43;4.30;;;;;;;13.68;95.91;100410.30;5156227;57;1141084;-74
2022/04/21 14:25:57;;;;;;;6.25;3.90;;;;;;;13.66;96.54;100402.96;5156363;57;1138979;-74
2022/04/21 14:31:04;;;;;;;4.50;3.67;;;;;;;13.65;96.01;100397.30;5156242;57;1136913;-74
2022/04/21 14:36:12;;;;;;;3.87;3.40;;;;;;;13.63;95.60;100396.59;5156357;57;1137257;-76
2022/04/21 14:46:48;;;;;;;6.92;4.95;;;;;;;13.67;95.38;100397.99;5175567;56;1136953;-74
2022/04/21 14:51:53;;;;;;;9.97;4.60;;;;;;;13.69;95.85;100384.56;5242917;56;1136908;-78
2022/04/21 14:56:59;;;;;;;8.47;4.93;;;;;;;13.71;95.96;100382.13;5243026;56;1136923;-73
2022/04/21 15:02:09;;;;;;;11.73;5.07;;;;;;;13.73;95.16;100381.98;5242670;56;1137007;-76
2022/04/21 15:07:15;;;;;;;4.33;3.93;;;;;;;13.76;95.51;100372.86;5242478;56;1139112;-76
2022/04/21 15:12:20;;;;;;;8.37;4.00;;;;;;;13.77;95.22;100376.70;5242897;56;1137284;-72
2022/04/21 15:17:26;;;;;;;6.87;5.67;;;;;;;13.70;94.69;100382.26;5194761;56;1136889;-74
2022/04/21 15:22:32;;;;;;;7.77;4.20;;;;;;;13.69;95.23;100372.61;5202996;56;1137099;-78
2022/04/21 15:27:37;;;;;;;6.47;4.87;;;;;;;13.75;95.39;100368.55;5170547;56;1134914;-78
2022/04/21 15:32:44;;;;;;;10.23;5.03;;;;;;;13.76;94.13;100371.53;5186064;56;1134903;-74
2022/04/21 15:37:50;;;;;;;9.67;5.93;;;;;;;13.67;93.94;100372.75;5176722;56;1141029;-74
2022/04/21 15:42:56;;;;;;;9.20;4.50;;;;;;;13.61;94.21;100369.31;5214720;56;1138844;-76
2022/04/21 15:48:19;;;;;;;5.10;4.23;;;;;;;13.66;95.31;100372.89;5187575;56;1138956;-74
2022/04/21 15:58:49;;;;;;;11.95;5.53;;;;;;;13.62;94.34;100377.64;5161785;57;1143178;-78
2022/04/21 16:04:01;;;;;;;16.00;9.47;;;;;;;13.60;94.60;100382.74;5161546;57;1141178;-79
2022/04/21 16:09:07;;;;;;;7.23;5.63;;;;;;;13.66;95.14;100376.88;5166544;56;1141332;-75
2022/04/21 16:14:12;;;;;;;7.70;5.20;;;;;;;13.63;93.78;100369.17;5199939;56;1138964;-78
2022/04/21 16:19:18;;;;;;;5.53;4.73;;;;;;;13.63;94.70;100367.84;5198217;56;1138958;-74
2022/04/21 16:24:24;;;;;;;13.60;7.57;;;;;;;13.62;94.48;100365.68;5248306;56;1138928;-75
2022/04/21 16:29:30;;;;;;;10.98;6.50;;;;;;;13.60;94.53;100367.64;5247914;56;1141044;-75
2022/04/21 16:34:36;;;;;;;6.57;5.07;;;;;;;13.62;93.99;100368.83;5248114;56;1141083;-75
2022/04/21 16:39:43;;;;;;;9.65;6.33;;;;;;;13.66;94.38;100368.90;5247848;56;1139026;-72
2022/04/21 16:44:49;;;;;;;13.33;6.60;;;;;;;13.68;94.24;100369.59;5247920;56;1139223;-76
2022/04/21 16:49:54;;;;;;;25.80;13.47;;;;;;;13.66;93.32;100372.89;5248032;56;1141170;-73
2022/04/21 16:55:01;;;;;;;11.60;6.60;;;;;;;13.58;93.23;100372.28;5248069;56;1143342;-74
2022/04/21 17:00:09;;;;;;;5.03;3.77;;;;;;;13.50;93.05;100375.28;5159261;56;1141031;-75
2022/04/21 17:05:15;;;;;;;95.50;65.37;;;;;;;13.48;92.92;100379.89;5150903;56;1139236;-77
2022/04/21 17:10:22;;;;;;;107.37;50.27;;;;;;;13.43;93.04;100382.99;5151401;56;1143362;-75
2022/04/21 17:15:28;;;;;;;125.63;47.77;;;;;;;13.41;93.53;100379.63;5149772;57;1145153;-75
2022/04/21 17:20:34;;;;;;;89.53;38.70;;;;;;;13.42;93.58;100381.31;5146178;57;1145416;-78
2022/04/21 17:25:40;;;;;;;78.63;35.53;;;;;;;13.41;93.52;100376.98;5144942;57;1143122;-74
2022/04/21 17:30:46;;;;;;;54.10;27.03;;;;;;;13.34;93.56;100373.19;5165019;56;1142995;-77
2022/04/21 17:35:52;;;;;;;32.45;21.23;;;;;;;13.38;94.13;100380.75;5209618;56;1143165;-74
2022/04/21 17:40:59;;;;;;;77.70;30.27;;;;;;;13.41;93.64;100382.29;5203321;56;1143099;-78
2022/04/21 17:46:05;;;;;;;30.57;12.90;;;;;;;13.37;93.58;100380.89;5197113;56;1143171;-76
2022/04/21 17:51:11;;;;;;;10.37;6.20;;;;;;;13.31;94.18;100380.95;5185787;56;1143438;-77
2022/04/21 17:56:16;;;;;;;9.10;5.10;;;;;;;13.29;94.76;100388.73;5204024;56;1140980;-75
2022/04/21 18:01:22;;;;;;;11.43;7.33;;;;;;;13.28;95.50;100380.41;5207632;56;1138966;-76
2022/04/21 18:06:28;;;;;;;11.87;6.70;;;;;;;13.26;95.82;100381.03;5195377;56;1141050;-78
2022/04/21 18:11:34;;;;;;;12.07;4.07;;;;;;;13.19;95.67;100380.73;5204087;56;1141015;-74
2022/04/21 18:16:40;;;;;;;6.47;4.17;;;;;;;12.97;95.24;100381.83;5191516;56;1141377;-78
2022/04/21 18:21:46;;;;;;;9.53;5.03;;;;;;;12.75;95.58;100386.02;5216249;56;1136804;-78
2022/04/21 18:26:51;;;;;;;9.17;5.37;;;;;;;12.73;96.59;100383.99;5246185;56;1136940;-76
2022/04/21 18:32:00;;;;;;;15.97;7.90;;;;;;;12.79;97.49;100386.60;5245937;56;1137039;-77
2022/04/21 18:37:06;;;;;;;104.40;53.00;;;;;;;12.78;97.43;100388.90;5246620;56;1139194;-74
2022/04/21 18:42:16;;;;;;;86.27;45.97;;;;;;;12.73;97.49;100389.78;5241506;56;1143089;-74
2022/04/21 18:47:22;;;;;;;73.00;35.60;;;;;;;12.68;97.57;100381.73;5189426;56;1141007;-76
2022/04/21 18:52:28;;;;;;;92.53;46.50;;;;;;;12.65;97.38;100387.34;5161867;57;1141558;-71
2022/04/21 19:02:57;;;;;;;80.57;43.93;;;;;;;12.53;97.47;100378.27;5161654;56;1141076;-72
2022/04/21 19:08:03;;;;;;;67.40;32.93;;;;;;;12.49;97.70;100383.52;5188690;56;1141060;-72
2022/04/21 19:13:10;;;;;;;64.17;33.13;;;;;;;12.42;97.72;100390.31;5165882;56;1141106;-72
2022/04/21 19:18:16;;;;;;;45.13;23.80;;;;;;;12.34;97.85;100381.72;5197089;56;1141171;-72
2022/04/21 19:23:22;;;;;;;66.80;31.48;;;;;;;12.27;97.82;100373.44;5221934;56;1141035;-72
2022/04/21 19:28:29;;;;;;;54.93;21.67;;;;;;;12.19;97.59;100374.61;5186272;56;1139340;-71
2022/04/21 19:33:37;;;;;;;42.73;22.60;;;;;;;12.15;97.82;100371.86;5201487;56;1205715;-69
2022/04/21 19:38:43;;;;;;;55.33;30.53;;;;;;;12.04;97.58;100372.44;5189283;56;1143098;-71
2022/04/21 19:43:48;;;;;;;68.87;28.83;;;;;;;11.87;97.70;100370.75;5236158;56;1143223;-71
2022/04/21 19:48:54;;;;;;;36.70;17.87;;;;;;;11.78;98.27;100371.51;5217518;56;1143350;-71
2022/04/21 19:53:59;;;;;;;55.53;23.47;;;;;;;11.74;98.20;100364.78;5230138;56;1143308;-72
2022/04/21 19:59:06;;;;;;;54.17;26.40;;;;;;;11.76;98.19;100361.55;5183758;56;1143347;-69
2022/04/21 20:04:12;;;;;;;57.67;29.47;;;;;;;11.61;97.61;100358.33;5189596;56;1143010;-72
2022/04/21 20:09:18;;;;;;;121.30;48.63;;;;;;;11.51;98.13;100367.19;5195162;56;1143110;-69
2022/04/21 20:14:23;;;;;;;96.00;38.63;;;;;;;11.35;98.08;100364.14;5201067;56;1145193;-68
2022/04/21 20:30:17;;;;;;;113.97;49.77;;;;;;;11.14;98.93;100383.98;5161771;56;1145224;-69
2022/04/21 20:35:24;;;;;;;84.13;37.00;;;;;;;11.10;99.58;100387.83;5161503;56;1145205;-69
2022/04/21 20:40:29;;;;;;;96.80;42.80;;;;;;;11.05;100.00;100383.39;5161677;56;1143527;-71
2022/04/21 20:45:35;;;;;;;75.97;31.70;;;;;;;11.05;100.00;100386.88;5161576;57;1145156;-70
2022/04/21 20:50:42;;;;;;;59.90;28.63;;;;;;;11.14;100.00;100380.01;5161278;57;1145213;-71
2022/04/21 20:55:50;;;;;;;216.43;85.50;;;;;;;11.06;99.87;100381.95;5161346;57;1145143;-71
2022/04/21 21:00:55;;;;;;;182.20;77.57;;;;;;;11.00;100.00;100382.44;5161695;57;1145274;-69
2022/04/21 21:06:01;;;;;;;149.07;60.53;;;;;;;10.90;100.00;100373.57;5161306;57;1147667;-70
2022/04/21 21:11:07;;;;;;;100.63;44.50;;;;;;;10.77;100.00;100357.86;5161382;57;1147214;-70
2022/04/21 21:16:14;;;;;;;95.20;49.17;;;;;;;10.50;100.00;100352.98;5161220;57;1147381;-69
2022/04/21 21:21:19;;;;;;;83.30;42.70;;;;;;;10.42;100.00;100351.91;5156650;57;1145261;-74
2022/04/21 21:26:25;;;;;;;100.90;51.80;;;;;;;10.31;100.00;100345.31;5155826;57;1145240;-77
2022/04/21 21:31:31;;;;;;;162.62;74.72;;;;;;;10.13;100.00;100336.52;5183591;56;1147302;-68
2022/04/21 21:36:37;;;;;;;143.40;68.57;;;;;;;10.00;100.00;100338.44;5242304;56;1147558;-69
2022/04/21 21:41:43;;;;;;;117.90;54.87;;;;;;;10.08;100.00;100346.59;5241902;56;1147337;-70
2022/04/21 21:46:50;;;;;;;117.30;54.13;;;;;;;10.13;100.00;100349.73;5236849;56;1147563;-70
2022/04/21 21:57:19;;;;;;;110.52;57.62;;;;;;;10.17;100.00;100354.30;5155823;57;1145229;-69
2022/04/21 22:02:25;;;;;;;100.80;54.90;;;;;;;10.16;100.00;100350.81;5155612;56;1147395;-69
2022/04/21 22:07:30;;;;;;;104.50;56.20;;;;;;;10.22;100.00;100344.25;5155560;57;1145310;-70
2022/04/21 22:12:39;;;;;;;97.67;51.73;;;;;;;10.25;100.00;100344.46;5155649;57;1145233;-68
2022/04/21 22:17:43;;;;;;;93.65;48.30;;;;;;;10.27;100.00;100339.90;5161264;56;1143197;-69
2022/04/21 22:22:54;;;;;;;101.90;52.73;;;;;;;10.22;100.00;100341.61;5242780;56;1143172;-69
2022/04/21 22:28:00;;;;;;;96.70;53.43;;;;;;;10.25;100.00;100337.86;5242655;56;1145436;-70
2022/04/21 22:33:06;;;;;;;95.67;49.83;;;;;;;10.19;100.00;100341.36;5242715;56;1143151;-71
2022/04/21 22:38:12;;;;;;;77.17;43.50;;;;;;;10.21;100.00;100340.77;5242696;56;1143186;-69
2022/04/21 22:43:19;;;;;;;80.87;44.27;;;;;;;10.23;100.00;100341.45;5242689;56;1143465;-71
2022/04/21 22:48:25;;;;;;;91.00;47.80;;;;;;;10.26;100.00;100345.67;5230814;56;1143281;-71
2022/04/21 22:53:32;;;;;;;83.27;45.33;;;;;;;10.15;100.00;100341.20;5221920;56;1143440;-71
2022/04/21 22:58:37;;;;;;;71.50;42.10;;;;;;;10.16;100.00;100344.20;5203027;56;1143179;-70
2022/04/21 23:03:43;;;;;;;60.60;33.83;;;;;;;10.18;100.00;100330.43;5201301;56;1143367;-71
2022/04/21 23:14:15;;;;;;;79.12;42.65;;;;;;;10.22;100.00;100319.14;5156248;57;1141181;-70
2022/04/21 23:19:21;;;;;;;62.97;31.10;;;;;;;10.13;100.00;100310.57;5189897;56;1141124;-70
2022/04/21 23:24:27;;;;;;;46.27;24.13;;;;;;;10.15;100.00;100315.26;5248697;56;1145350;-71
2022/04/21 23:29:35;;;;;;;28.63;16.60;;;;;;;10.11;100.00;100312.48;5248320;56;1145205;-69
2022/04/21 23:34:41;;;;;;;27.40;14.30;;;;;;;10.15;100.00;100306.84;5248287;56;1145158;-71
2022/04/21 23:39:47;;;;;;;20.83;12.70;;;;;;;10.20;100.00;100299.92;5248323;56;1145420;-71
2022/04/21 23:44:55;;;;;;;21.83;13.80;;;;;;;10.19;100.00;100291.15;5248406;56;1145456;-72
2022/04/21 23:50:00;;;;;;;20.27;12.57;;;;;;;10.18;100.00;100296.52;5171479;56;1145517;-69
2022/04/21 23:55:08;;;;;;;25.68;13.25;;;;;;;10.17;100.00;100294.36;5161431;57;1145250;-70
